Goddard, KS (67052)

2:15 AM CST on February 13, 2016 (GMT -0600)
Goddard North | | Change Station
CLOSE
Current Station
Personal Weather Station
Location: Goddard, KS
Elevation: 1473 ft
Nearby Weather Stations

Elev 1473 ft 37.67 °N, 97.58 °W | Updated 9 minutes ago

Mostly Cloudy
Mostly Cloudy
26.8 °F
Feels Like 22 °F
N
4.2
Wind Variable Wind from East

Today
High -- | Low -- °F
--% Chance of Precip.
Yesterday
High -- | Low -- °F
Precip. -- in
Pressure 30.53 in
Visibility 10.0 miles
Clouds Mostly Cloudy 11000 ft
Windchill 22 °F
Dew Point 18 °F
Humidity 69%
Rainfall 0.00 in
Snow Depth Not available.
7:22 AM 6:06 PM
Waxing Crescent, 28% visible
METAR KICT 130753Z 07008KT 10SM BKN110 M02/M09 A3050 RMK AO2 SLP337 T10171089
Pressure 30.53 in
Visibility 10.0 miles
Clouds Mostly Cloudy 11000 ft
Windchill 22 °F
Dew Point 18 °F
Humidity 69%
Rainfall 0.00 in
Snow Depth Not available.
7:22 AM 6:06 PM
Waxing Crescent, 28% visible
METAR KICT 130753Z 07008KT 10SM BKN110 M02/M09 A3050 RMK AO2 SLP337 T10171089

10-Day Weather Forecast

Almanac

Astronomy

Feb. 13, 2016 Rise Set
Actual Time
Civil Twilight
Nautical Twilight
Astronomical Twilight
Moon
Length of Visible Light
Length of Day
Tomorrow will be .
, % of the Moon is Illuminated

Today's Extremes

State Highs State Lows

Community

WunderPhotos

Upload Photos

1,892,536 photos uploaded!

WunderBlog® & News

Nearby

Air Quality

  Air Quality AQ Index Pollutant
Not available.

Snow Depth

Station Depth Elevation

Earthquake Activity

City Distance Mag. Time & Date
Minimum magnitude displayed is 2.5.

Coastal Water Temperatures

Place Temperature

Stations

Nearby Weather Stations

Station Location Temp. Windchill Dew Point Humidity Wind Precip. Elev Updated Type
                   

Watches & Warnings

There are currently no watches in effect.